sensor_id;sensor_type;location;lat;lon;timestamp;P1;durP1;ratioP1;P2;durP2;ratioP2
79464;SDS011;68932;47.410;8.232;2024-03-02T00:01:50;14.10;;;10.50;;
79464;SDS011;68932;47.410;8.232;2024-03-02T00:04:18;15.80;;;10.70;;
79464;SDS011;68932;47.410;8.232;2024-03-02T00:06:47;16.20;;;11.20;;
79464;SDS011;68932;47.410;8.232;2024-03-02T00:09:17;15.30;;;10.50;;
79464;SDS011;68932;47.410;8.232;2024-03-02T00:11:45;17.60;;;12.00;;
79464;SDS011;68932;47.410;8.232;2024-03-02T00:14:13;20.10;;;11.90;;
79464;SDS011;68932;47.410;8.232;2024-03-02T00:16:42;18.70;;;11.30;;
79464;SDS011;68932;47.410;8.232;2024-03-02T00:19:10;21.20;;;12.00;;
79464;SDS011;68932;47.410;8.232;2024-03-02T00:21:39;15.70;;;11.20;;
79464;SDS011;68932;47.410;8.232;2024-03-02T00:24:12;19.20;;;12.50;;
79464;SDS011;68932;47.410;8.232;2024-03-02T00:26:47;16.20;;;11.00;;
79464;SDS011;68932;47.410;8.232;2024-03-02T00:29:16;16.80;;;11.20;;
79464;SDS011;68932;47.410;8.232;2024-03-02T00:31:45;16.00;;;10.90;;
79464;SDS011;68932;47.410;8.232;2024-03-02T00:34:13;14.80;;;10.30;;
79464;SDS011;68932;47.410;8.232;2024-03-02T00:36:41;17.90;;;11.50;;
79464;SDS011;68932;47.410;8.232;2024-03-02T00:39:10;14.40;;;10.80;;
79464;SDS011;68932;47.410;8.232;2024-03-02T00:41:41;13.10;;;10.00;;
79464;SDS011;68932;47.410;8.232;2024-03-02T00:44:10;13.70;;;10.20;;
79464;SDS011;68932;47.410;8.232;2024-03-02T00:46:42;15.00;;;10.40;;
79464;SDS011;68932;47.410;8.232;2024-03-02T00:49:17;13.30;;;10.00;;
79464;SDS011;68932;47.410;8.232;2024-03-02T00:51:47;12.00;;;8.90;;
79464;SDS011;68932;47.410;8.232;2024-03-02T00:54:19;12.90;;;9.70;;
79464;SDS011;68932;47.410;8.232;2024-03-02T00:56:49;12.90;;;9.00;;
79464;SDS011;68932;47.410;8.232;2024-03-02T00:59:18;11.50;;;9.10;;
79464;SDS011;68932;47.410;8.232;2024-03-02T01:01:47;12.60;;;9.00;;
79464;SDS011;68932;47.410;8.232;2024-03-02T01:04:15;10.30;;;8.10;;
79464;SDS011;68932;47.410;8.232;2024-03-02T01:06:44;11.30;;;8.50;;
79464;SDS011;68932;47.410;8.232;2024-03-02T01:09:12;10.70;;;8.40;;
79464;SDS011;68932;47.410;8.232;2024-03-02T01:11:40;9.90;;;8.40;;
79464;SDS011;68932;47.410;8.232;2024-03-02T01:14:08;9.50;;;8.00;;
79464;SDS011;68932;47.410;8.232;2024-03-02T01:16:37;10.80;;;8.10;;
79464;SDS011;68932;47.410;8.232;2024-03-02T01:19:05;11.90;;;8.60;;
79464;SDS011;68932;47.410;8.232;2024-03-02T01:21:33;13.30;;;9.30;;
79464;SDS011;68932;47.410;8.232;2024-03-02T01:24:01;13.40;;;8.60;;
79464;SDS011;68932;47.410;8.232;2024-03-02T01:26:30;12.20;;;9.20;;
79464;SDS011;68932;47.410;8.232;2024-03-02T01:28:58;14.30;;;10.30;;
79464;SDS011;68932;47.410;8.232;2024-03-02T01:31:26;14.40;;;9.80;;
79464;SDS011;68932;47.410;8.232;2024-03-02T01:33:54;12.50;;;9.90;;
79464;SDS011;68932;47.410;8.232;2024-03-02T01:36:23;14.10;;;10.10;;
79464;SDS011;68932;47.410;8.232;2024-03-02T01:38:51;13.00;;;9.70;;
79464;SDS011;68932;47.410;8.232;2024-03-02T01:41:19;13.40;;;9.50;;
79464;SDS011;68932;47.410;8.232;2024-03-02T01:43:47;12.80;;;10.10;;
79464;SDS011;68932;47.410;8.232;2024-03-02T01:46:16;12.00;;;9.60;;
79464;SDS011;68932;47.410;8.232;2024-03-02T01:48:44;12.60;;;10.00;;
79464;SDS011;68932;47.410;8.232;2024-03-02T01:51:12;12.00;;;9.60;;
79464;SDS011;68932;47.410;8.232;2024-03-02T01:53:41;13.70;;;10.60;;
79464;SDS011;68932;47.410;8.232;2024-03-02T01:56:09;12.60;;;9.10;;
79464;SDS011;68932;47.410;8.232;2024-03-02T01:58:37;14.40;;;10.50;;
79464;SDS011;68932;47.410;8.232;2024-03-02T02:01:05;12.30;;;9.30;;
79464;SDS011;68932;47.410;8.232;2024-03-02T02:03:34;11.80;;;8.80;;
79464;SDS011;68932;47.410;8.232;2024-03-02T02:06:02;13.70;;;9.40;;
79464;SDS011;68932;47.410;8.232;2024-03-02T02:08:30;15.10;;;10.30;;
79464;SDS011;68932;47.410;8.232;2024-03-02T02:10:59;14.00;;;9.60;;
79464;SDS011;68932;47.410;8.232;2024-03-02T02:13:27;12.80;;;8.60;;
79464;SDS011;68932;47.410;8.232;2024-03-02T02:15:56;11.60;;;8.70;;
79464;SDS011;68932;47.410;8.232;2024-03-02T02:18:32;11.90;;;8.70;;
79464;SDS011;68932;47.410;8.232;2024-03-02T02:21:01;10.70;;;9.00;;
79464;SDS011;68932;47.410;8.232;2024-03-02T02:23:29;12.70;;;8.80;;
79464;SDS011;68932;47.410;8.232;2024-03-02T02:25:57;11.20;;;8.60;;
79464;SDS011;68932;47.410;8.232;2024-03-02T02:28:25;12.30;;;8.60;;
79464;SDS011;68932;47.410;8.232;2024-03-02T02:30:54;11.60;;;9.10;;
79464;SDS011;68932;47.410;8.232;2024-03-02T02:33:22;11.10;;;8.50;;
79464;SDS011;68932;47.410;8.232;2024-03-02T02:35:50;13.30;;;8.50;;
79464;SDS011;68932;47.410;8.232;2024-03-02T02:38:19;12.60;;;8.00;;
79464;SDS011;68932;47.410;8.232;2024-03-02T02:40:47;13.00;;;8.90;;
79464;SDS011;68932;47.410;8.232;2024-03-02T02:43:15;11.30;;;8.20;;
79464;SDS011;68932;47.410;8.232;2024-03-02T02:45:43;9.80;;;7.50;;
79464;SDS011;68932;47.410;8.232;2024-03-02T02:48:12;10.20;;;8.00;;
79464;SDS011;68932;47.410;8.232;2024-03-02T02:50:41;10.70;;;8.10;;
79464;SDS011;68932;47.410;8.232;2024-03-02T02:53:09;10.40;;;8.00;;
79464;SDS011;68932;47.410;8.232;2024-03-02T02:55:37;9.50;;;8.00;;
79464;SDS011;68932;47.410;8.232;2024-03-02T02:58:07;10.20;;;7.90;;
79464;SDS011;68932;47.410;8.232;2024-03-02T03:00:35;9.30;;;7.40;;
79464;SDS011;68932;47.410;8.232;2024-03-02T03:03:03;8.90;;;7.30;;
79464;SDS011;68932;47.410;8.232;2024-03-02T03:05:32;10.60;;;7.80;;
79464;SDS011;68932;47.410;8.232;2024-03-02T03:08:00;9.50;;;7.90;;
79464;SDS011;68932;47.410;8.232;2024-03-02T03:10:28;10.80;;;8.10;;
79464;SDS011;68932;47.410;8.232;2024-03-02T03:12:56;9.20;;;6.90;;
79464;SDS011;68932;47.410;8.232;2024-03-02T03:15:25;10.60;;;7.90;;
79464;SDS011;68932;47.410;8.232;2024-03-02T03:17:53;9.80;;;7.60;;
79464;SDS011;68932;47.410;8.232;2024-03-02T03:20:21;10.50;;;7.70;;
79464;SDS011;68932;47.410;8.232;2024-03-02T03:22:49;9.30;;;7.80;;
79464;SDS011;68932;47.410;8.232;2024-03-02T03:25:17;9.60;;;7.70;;
79464;SDS011;68932;47.410;8.232;2024-03-02T03:27:46;9.70;;;7.90;;
79464;SDS011;68932;47.410;8.232;2024-03-02T03:30:15;10.00;;;8.10;;
79464;SDS011;68932;47.410;8.232;2024-03-02T03:32:43;11.60;;;8.60;;
79464;SDS011;68932;47.410;8.232;2024-03-02T03:35:11;9.60;;;7.50;;
79464;SDS011;68932;47.410;8.232;2024-03-02T03:37:39;11.20;;;8.20;;
79464;SDS011;68932;47.410;8.232;2024-03-02T03:40:08;7.60;;;6.10;;
79464;SDS011;68932;47.410;8.232;2024-03-02T03:42:37;8.10;;;6.90;;
79464;SDS011;68932;47.410;8.232;2024-03-02T03:45:06;8.50;;;6.40;;
79464;SDS011;68932;47.410;8.232;2024-03-02T03:47:35;7.40;;;5.80;;
79464;SDS011;68932;47.410;8.232;2024-03-02T03:50:04;7.90;;;6.30;;
79464;SDS011;68932;47.410;8.232;2024-03-02T03:52:33;7.30;;;6.40;;
79464;SDS011;68932;47.410;8.232;2024-03-02T03:55:02;6.90;;;5.90;;
79464;SDS011;68932;47.410;8.232;2024-03-02T03:57:31;7.50;;;6.20;;
79464;SDS011;68932;47.410;8.232;2024-03-02T03:59:59;7.80;;;6.80;;
79464;SDS011;68932;47.410;8.232;2024-03-02T04:02:27;7.80;;;6.10;;
79464;SDS011;68932;47.410;8.232;2024-03-02T04:04:55;9.00;;;6.50;;
79464;SDS011;68932;47.410;8.232;2024-03-02T04:07:24;8.60;;;7.20;;
79464;SDS011;68932;47.410;8.232;2024-03-02T04:09:52;9.20;;;6.60;;
79464;SDS011;68932;47.410;8.232;2024-03-02T04:12:20;10.30;;;7.40;;
79464;SDS011;68932;47.410;8.232;2024-03-02T04:14:48;10.90;;;8.50;;
79464;SDS011;68932;47.410;8.232;2024-03-02T04:17:17;9.50;;;7.80;;
79464;SDS011;68932;47.410;8.232;2024-03-02T04:19:45;9.30;;;6.80;;
79464;SDS011;68932;47.410;8.232;2024-03-02T04:22:13;9.90;;;7.80;;
79464;SDS011;68932;47.410;8.232;2024-03-02T04:24:41;8.00;;;6.70;;
79464;SDS011;68932;47.410;8.232;2024-03-02T04:27:10;8.00;;;6.10;;
79464;SDS011;68932;47.410;8.232;2024-03-02T04:29:38;8.70;;;6.60;;
79464;SDS011;68932;47.410;8.232;2024-03-02T04:32:06;9.50;;;7.00;;
79464;SDS011;68932;47.410;8.232;2024-03-02T04:34:35;8.30;;;6.60;;
79464;SDS011;68932;47.410;8.232;2024-03-02T04:37:03;7.50;;;6.60;;
79464;SDS011;68932;47.410;8.232;2024-03-02T04:39:31;8.80;;;6.80;;
79464;SDS011;68932;47.410;8.232;2024-03-02T04:42:00;9.50;;;6.80;;
79464;SDS011;68932;47.410;8.232;2024-03-02T04:44:29;8.00;;;6.70;;
79464;SDS011;68932;47.410;8.232;2024-03-02T04:46:57;10.20;;;6.70;;
79464;SDS011;68932;47.410;8.232;2024-03-02T04:49:25;9.30;;;7.10;;
79464;SDS011;68932;47.410;8.232;2024-03-02T04:51:53;9.40;;;6.90;;
79464;SDS011;68932;47.410;8.232;2024-03-02T04:54:21;9.80;;;7.00;;
79464;SDS011;68932;47.410;8.232;2024-03-02T04:56:50;8.70;;;7.00;;
79464;SDS011;68932;47.410;8.232;2024-03-02T04:59:18;10.10;;;7.60;;
79464;SDS011;68932;47.410;8.232;2024-03-02T05:01:46;9.60;;;7.90;;
79464;SDS011;68932;47.410;8.232;2024-03-02T05:04:15;9.90;;;7.30;;
79464;SDS011;68932;47.410;8.232;2024-03-02T05:06:43;9.50;;;7.10;;
79464;SDS011;68932;47.410;8.232;2024-03-02T05:09:11;12.70;;;8.20;;
79464;SDS011;68932;47.410;8.232;2024-03-02T05:11:39;9.70;;;7.10;;
79464;SDS011;68932;47.410;8.232;2024-03-02T05:14:08;9.20;;;7.10;;
79464;SDS011;68932;47.410;8.232;2024-03-02T05:16:36;9.40;;;7.00;;
79464;SDS011;68932;47.410;8.232;2024-03-02T05:19:04;9.50;;;7.70;;
79464;SDS011;68932;47.410;8.232;2024-03-02T05:21:32;11.50;;;8.10;;
79464;SDS011;68932;47.410;8.232;2024-03-02T05:24:00;11.90;;;8.70;;
79464;SDS011;68932;47.410;8.232;2024-03-02T05:26:29;11.90;;;8.80;;
79464;SDS011;68932;47.410;8.232;2024-03-02T05:28:57;9.20;;;6.80;;
79464;SDS011;68932;47.410;8.232;2024-03-02T05:31:25;9.90;;;7.50;;
79464;SDS011;68932;47.410;8.232;2024-03-02T05:33:53;9.30;;;7.10;;
79464;SDS011;68932;47.410;8.232;2024-03-02T05:36:21;9.00;;;6.60;;
79464;SDS011;68932;47.410;8.232;2024-03-02T05:38:50;8.70;;;6.60;;
79464;SDS011;68932;47.410;8.232;2024-03-02T05:41:18;10.40;;;8.00;;
79464;SDS011;68932;47.410;8.232;2024-03-02T05:43:46;11.40;;;7.90;;
79464;SDS011;68932;47.410;8.232;2024-03-02T05:46:14;10.10;;;7.80;;
79464;SDS011;68932;47.410;8.232;2024-03-02T05:48:42;8.60;;;6.80;;
79464;SDS011;68932;47.410;8.232;2024-03-02T05:51:11;9.90;;;8.00;;
79464;SDS011;68932;47.410;8.232;2024-03-02T05:53:39;11.00;;;8.00;;
79464;SDS011;68932;47.410;8.232;2024-03-02T05:56:07;8.80;;;6.80;;
79464;SDS011;68932;47.410;8.232;2024-03-02T05:58:35;9.70;;;6.90;;
79464;SDS011;68932;47.410;8.232;2024-03-02T06:01:04;9.20;;;6.90;;
79464;SDS011;68932;47.410;8.232;2024-03-02T06:03:33;11.70;;;7.60;;
79464;SDS011;68932;47.410;8.232;2024-03-02T06:06:01;8.90;;;6.60;;
79464;SDS011;68932;47.410;8.232;2024-03-02T06:08:29;8.60;;;6.50;;
79464;SDS011;68932;47.410;8.232;2024-03-02T06:10:58;7.80;;;6.50;;
79464;SDS011;68932;47.410;8.232;2024-03-02T06:13:26;8.50;;;6.00;;
79464;SDS011;68932;47.410;8.232;2024-03-02T06:15:54;9.00;;;6.90;;
79464;SDS011;68932;47.410;8.232;2024-03-02T06:18:22;9.70;;;7.20;;
79464;SDS011;68932;47.410;8.232;2024-03-02T06:20:50;8.30;;;6.70;;
79464;SDS011;68932;47.410;8.232;2024-03-02T06:23:19;9.40;;;7.30;;
79464;SDS011;68932;47.410;8.232;2024-03-02T06:25:47;9.20;;;7.90;;
79464;SDS011;68932;47.410;8.232;2024-03-02T06:28:15;9.60;;;7.00;;
79464;SDS011;68932;47.410;8.232;2024-03-02T06:30:43;7.10;;;5.50;;
79464;SDS011;68932;47.410;8.232;2024-03-02T06:33:11;7.50;;;5.70;;
79464;SDS011;68932;47.410;8.232;2024-03-02T06:35:40;8.80;;;6.60;;
79464;SDS011;68932;47.410;8.232;2024-03-02T06:38:08;8.20;;;5.90;;
79464;SDS011;68932;47.410;8.232;2024-03-02T06:40:36;7.90;;;7.00;;
79464;SDS011;68932;47.410;8.232;2024-03-02T06:43:05;8.70;;;6.00;;
79464;SDS011;68932;47.410;8.232;2024-03-02T06:45:33;7.30;;;5.40;;
79464;SDS011;68932;47.410;8.232;2024-03-02T06:48:01;9.10;;;6.90;;
79464;SDS011;68932;47.410;8.232;2024-03-02T06:50:29;7.90;;;5.60;;
79464;SDS011;68932;47.410;8.232;2024-03-02T06:52:58;6.50;;;5.70;;
79464;SDS011;68932;47.410;8.232;2024-03-02T06:55:26;7.60;;;6.10;;
79464;SDS011;68932;47.410;8.232;2024-03-02T06:57:54;7.20;;;6.10;;
79464;SDS011;68932;47.410;8.232;2024-03-02T07:00:22;8.50;;;6.20;;
79464;SDS011;68932;47.410;8.232;2024-03-02T07:02:51;7.30;;;5.40;;
79464;SDS011;68932;47.410;8.232;2024-03-02T07:05:19;7.00;;;5.80;;
79464;SDS011;68932;47.410;8.232;2024-03-02T07:07:47;6.00;;;4.50;;
79464;SDS011;68932;47.410;8.232;2024-03-02T07:10:15;7.90;;;4.80;;
79464;SDS011;68932;47.410;8.232;2024-03-02T07:12:44;6.60;;;5.10;;
79464;SDS011;68932;47.410;8.232;2024-03-02T07:15:12;8.00;;;6.40;;
79464;SDS011;68932;47.410;8.232;2024-03-02T07:17:40;9.90;;;6.60;;
79464;SDS011;68932;47.410;8.232;2024-03-02T07:20:09;7.60;;;6.30;;
79464;SDS011;68932;47.410;8.232;2024-03-02T07:22:38;7.40;;;6.10;;
79464;SDS011;68932;47.410;8.232;2024-03-02T07:25:06;8.40;;;6.40;;
79464;SDS011;68932;47.410;8.232;2024-03-02T07:27:35;8.80;;;6.10;;
79464;SDS011;68932;47.410;8.232;2024-03-02T07:30:04;9.60;;;7.60;;
79464;SDS011;68932;47.410;8.232;2024-03-02T07:32:33;8.30;;;6.40;;
79464;SDS011;68932;47.410;8.232;2024-03-02T07:35:01;9.60;;;7.80;;
79464;SDS011;68932;47.410;8.232;2024-03-02T07:37:30;8.90;;;6.50;;
79464;SDS011;68932;47.410;8.232;2024-03-02T07:39:58;9.70;;;7.00;;
79464;SDS011;68932;47.410;8.232;2024-03-02T07:42:26;9.60;;;6.70;;
79464;SDS011;68932;47.410;8.232;2024-03-02T07:44:55;8.70;;;7.00;;
79464;SDS011;68932;47.410;8.232;2024-03-02T07:47:23;9.30;;;7.30;;
79464;SDS011;68932;47.410;8.232;2024-03-02T07:49:51;9.90;;;7.60;;
79464;SDS011;68932;47.410;8.232;2024-03-02T07:52:19;9.50;;;6.90;;
79464;SDS011;68932;47.410;8.232;2024-03-02T07:54:48;10.00;;;7.60;;
79464;SDS011;68932;47.410;8.232;2024-03-02T07:57:16;12.00;;;8.10;;
79464;SDS011;68932;47.410;8.232;2024-03-02T07:59:44;11.10;;;7.80;;
79464;SDS011;68932;47.410;8.232;2024-03-02T08:02:12;11.70;;;7.80;;
79464;SDS011;68932;47.410;8.232;2024-03-02T08:04:41;11.10;;;7.70;;
79464;SDS011;68932;47.410;8.232;2024-03-02T08:07:09;10.70;;;7.10;;
79464;SDS011;68932;47.410;8.232;2024-03-02T08:09:38;10.80;;;8.00;;
79464;SDS011;68932;47.410;8.232;2024-03-02T08:12:06;11.70;;;8.00;;
79464;SDS011;68932;47.410;8.232;2024-03-02T08:14:35;10.80;;;7.60;;
79464;SDS011;68932;47.410;8.232;2024-03-02T08:17:03;11.60;;;8.60;;
79464;SDS011;68932;47.410;8.232;2024-03-02T08:19:32;11.20;;;8.00;;
79464;SDS011;68932;47.410;8.232;2024-03-02T08:22:00;12.30;;;8.20;;
79464;SDS011;68932;47.410;8.232;2024-03-02T08:24:28;13.60;;;8.90;;
79464;SDS011;68932;47.410;8.232;2024-03-02T08:26:57;11.60;;;7.60;;
79464;SDS011;68932;47.410;8.232;2024-03-02T08:29:26;11.30;;;7.80;;
79464;SDS011;68932;47.410;8.232;2024-03-02T08:31:54;11.90;;;7.70;;
79464;SDS011;68932;47.410;8.232;2024-03-02T08:34:22;12.10;;;8.70;;
79464;SDS011;68932;47.410;8.232;2024-03-02T08:36:50;12.30;;;8.50;;
79464;SDS011;68932;47.410;8.232;2024-03-02T08:39:19;9.30;;;6.30;;
79464;SDS011;68932;47.410;8.232;2024-03-02T08:41:47;15.00;;;8.80;;
79464;SDS011;68932;47.410;8.232;2024-03-02T08:44:16;11.70;;;7.80;;
79464;SDS011;68932;47.410;8.232;2024-03-02T08:46:44;9.80;;;6.40;;
79464;SDS011;68932;47.410;8.232;2024-03-02T08:49:13;12.80;;;8.90;;
79464;SDS011;68932;47.410;8.232;2024-03-02T08:51:41;11.60;;;8.90;;
79464;SDS011;68932;47.410;8.232;2024-03-02T08:54:09;13.30;;;9.30;;
79464;SDS011;68932;47.410;8.232;2024-03-02T08:56:38;14.40;;;10.30;;
79464;SDS011;68932;47.410;8.232;2024-03-02T08:59:06;15.10;;;9.20;;
79464;SDS011;68932;47.410;8.232;2024-03-02T09:01:34;12.20;;;8.20;;
79464;SDS011;68932;47.410;8.232;2024-03-02T09:04:02;14.40;;;8.70;;
79464;SDS011;68932;47.410;8.232;2024-03-02T09:06:31;16.00;;;10.00;;
79464;SDS011;68932;47.410;8.232;2024-03-02T09:08:59;13.90;;;8.10;;
79464;SDS011;68932;47.410;8.232;2024-03-02T09:11:27;12.60;;;8.50;;
79464;SDS011;68932;47.410;8.232;2024-03-02T09:13:55;11.90;;;8.20;;
79464;SDS011;68932;47.410;8.232;2024-03-02T09:16:23;13.30;;;8.80;;
79464;SDS011;68932;47.410;8.232;2024-03-02T09:18:52;13.40;;;9.00;;
79464;SDS011;68932;47.410;8.232;2024-03-02T09:21:20;14.70;;;9.40;;
79464;SDS011;68932;47.410;8.232;2024-03-02T09:23:48;12.90;;;8.80;;
79464;SDS011;68932;47.410;8.232;2024-03-02T09:26:16;15.10;;;9.60;;
79464;SDS011;68932;47.410;8.232;2024-03-02T09:28:44;16.30;;;9.70;;
79464;SDS011;68932;47.410;8.232;2024-03-02T09:31:13;14.90;;;8.80;;
79464;SDS011;68932;47.410;8.232;2024-03-02T09:33:41;11.10;;;7.30;;
79464;SDS011;68932;47.410;8.232;2024-03-02T09:36:17;12.80;;;8.50;;
79464;SDS011;68932;47.410;8.232;2024-03-02T09:38:46;11.70;;;8.20;;
79464;SDS011;68932;47.410;8.232;2024-03-02T09:41:15;14.60;;;8.80;;
79464;SDS011;68932;47.410;8.232;2024-03-02T09:43:43;11.20;;;7.50;;
79464;SDS011;68932;47.410;8.232;2024-03-02T09:46:12;12.20;;;9.10;;
79464;SDS011;68932;47.410;8.232;2024-03-02T09:48:41;12.00;;;8.30;;
79464;SDS011;68932;47.410;8.232;2024-03-02T09:51:10;13.00;;;9.30;;
79464;SDS011;68932;47.410;8.232;2024-03-02T09:53:39;12.10;;;9.00;;
79464;SDS011;68932;47.410;8.232;2024-03-02T09:56:08;13.10;;;9.00;;
79464;SDS011;68932;47.410;8.232;2024-03-02T09:58:36;14.10;;;9.70;;
79464;SDS011;68932;47.410;8.232;2024-03-02T10:01:06;13.70;;;9.30;;
79464;SDS011;68932;47.410;8.232;2024-03-02T10:03:35;14.00;;;9.10;;
79464;SDS011;68932;47.410;8.232;2024-03-02T10:06:20;11.40;;;8.00;;
79464;SDS011;68932;47.410;8.232;2024-03-02T10:08:50;10.60;;;8.10;;
79464;SDS011;68932;47.410;8.232;2024-03-02T10:11:28;13.00;;;8.70;;
79464;SDS011;68932;47.410;8.232;2024-03-02T10:14:07;10.90;;;8.40;;
79464;SDS011;68932;47.410;8.232;2024-03-02T10:16:37;10.50;;;7.40;;
79464;SDS011;68932;47.410;8.232;2024-03-02T10:19:19;11.50;;;7.70;;
79464;SDS011;68932;47.410;8.232;2024-03-02T10:21:49;10.70;;;8.10;;
79464;SDS011;68932;47.410;8.232;2024-03-02T10:24:18;10.70;;;7.50;;
79464;SDS011;68932;47.410;8.232;2024-03-02T10:26:47;10.40;;;8.20;;
79464;SDS011;68932;47.410;8.232;2024-03-02T10:29:16;10.70;;;8.30;;
79464;SDS011;68932;47.410;8.232;2024-03-02T10:31:45;13.30;;;8.70;;
79464;SDS011;68932;47.410;8.232;2024-03-02T10:34:14;11.20;;;8.00;;
79464;SDS011;68932;47.410;8.232;2024-03-02T10:36:42;10.30;;;7.70;;
79464;SDS011;68932;47.410;8.232;2024-03-02T10:39:11;12.10;;;8.30;;
79464;SDS011;68932;47.410;8.232;2024-03-02T10:41:40;11.70;;;7.30;;
79464;SDS011;68932;47.410;8.232;2024-03-02T10:44:10;11.00;;;8.10;;
79464;SDS011;68932;47.410;8.232;2024-03-02T10:46:38;10.90;;;7.80;;
79464;SDS011;68932;47.410;8.232;2024-03-02T10:49:06;10.60;;;8.00;;
79464;SDS011;68932;47.410;8.232;2024-03-02T10:51:34;12.00;;;9.50;;
79464;SDS011;68932;47.410;8.232;2024-03-02T10:54:03;10.50;;;7.40;;
79464;SDS011;68932;47.410;8.232;2024-03-02T10:56:32;12.10;;;8.90;;
79464;SDS011;68932;47.410;8.232;2024-03-02T10:59:04;12.00;;;8.10;;
79464;SDS011;68932;47.410;8.232;2024-03-02T11:01:43;10.80;;;8.10;;
79464;SDS011;68932;47.410;8.232;2024-03-02T11:04:12;9.00;;;7.20;;
79464;SDS011;68932;47.410;8.232;2024-03-02T11:06:42;10.10;;;8.00;;
79464;SDS011;68932;47.410;8.232;2024-03-02T11:09:15;11.50;;;8.30;;
79464;SDS011;68932;47.410;8.232;2024-03-02T11:11:48;10.40;;;8.60;;
79464;SDS011;68932;47.410;8.232;2024-03-02T11:14:21;9.70;;;7.80;;
79464;SDS011;68932;47.410;8.232;2024-03-02T11:16:51;11.70;;;8.40;;
79464;SDS011;68932;47.410;8.232;2024-03-02T11:19:20;12.20;;;8.50;;
79464;SDS011;68932;47.410;8.232;2024-03-02T11:21:50;11.00;;;7.60;;
79464;SDS011;68932;47.410;8.232;2024-03-02T11:24:32;10.50;;;7.60;;
79464;SDS011;68932;47.410;8.232;2024-03-02T11:27:01;10.30;;;7.30;;
79464;SDS011;68932;47.410;8.232;2024-03-02T11:32:20;10.60;;;8.00;;
79464;SDS011;68932;47.410;8.232;2024-03-02T11:34:49;12.90;;;7.90;;
79464;SDS011;68932;47.410;8.232;2024-03-02T11:37:18;10.90;;;7.90;;
79464;SDS011;68932;47.410;8.232;2024-03-02T11:39:48;10.60;;;8.30;;
79464;SDS011;68932;47.410;8.232;2024-03-02T11:42:17;9.70;;;7.10;;
79464;SDS011;68932;47.410;8.232;2024-03-02T11:44:46;9.10;;;6.50;;
79464;SDS011;68932;47.410;8.232;2024-03-02T11:47:15;9.50;;;7.40;;
79464;SDS011;68932;47.410;8.232;2024-03-02T11:49:44;9.50;;;6.70;;
79464;SDS011;68932;47.410;8.232;2024-03-02T11:52:15;8.60;;;6.60;;
79464;SDS011;68932;47.410;8.232;2024-03-02T11:54:44;8.80;;;6.90;;
79464;SDS011;68932;47.410;8.232;2024-03-02T11:57:14;8.90;;;6.80;;
79464;SDS011;68932;47.410;8.232;2024-03-02T11:59:43;8.40;;;6.00;;
79464;SDS011;68932;47.410;8.232;2024-03-02T12:02:16;9.60;;;7.10;;
79464;SDS011;68932;47.410;8.232;2024-03-02T12:04:46;9.20;;;6.80;;
79464;SDS011;68932;47.410;8.232;2024-03-02T12:07:19;8.50;;;6.70;;
79464;SDS011;68932;47.410;8.232;2024-03-02T12:09:48;9.40;;;6.60;;
79464;SDS011;68932;47.410;8.232;2024-03-02T12:12:25;7.60;;;5.60;;
79464;SDS011;68932;47.410;8.232;2024-03-02T12:14:53;7.40;;;5.40;;
79464;SDS011;68932;47.410;8.232;2024-03-02T12:17:22;8.80;;;7.40;;
79464;SDS011;68932;47.410;8.232;2024-03-02T12:19:50;8.50;;;6.10;;
79464;SDS011;68932;47.410;8.232;2024-03-02T12:22:18;6.50;;;5.00;;
79464;SDS011;68932;47.410;8.232;2024-03-02T12:24:47;7.70;;;5.80;;
79464;SDS011;68932;47.410;8.232;2024-03-02T12:27:16;6.90;;;5.40;;
79464;SDS011;68932;47.410;8.232;2024-03-02T12:29:44;6.80;;;5.30;;
79464;SDS011;68932;47.410;8.232;2024-03-02T12:32:12;7.30;;;5.20;;
79464;SDS011;68932;47.410;8.232;2024-03-02T12:34:40;7.20;;;5.20;;
79464;SDS011;68932;47.410;8.232;2024-03-02T12:37:09;7.60;;;5.20;;
79464;SDS011;68932;47.410;8.232;2024-03-02T12:39:40;7.40;;;4.90;;
79464;SDS011;68932;47.410;8.232;2024-03-02T12:42:12;6.10;;;4.30;;
79464;SDS011;68932;47.410;8.232;2024-03-02T12:44:41;7.00;;;5.20;;
79464;SDS011;68932;47.410;8.232;2024-03-02T12:47:09;5.30;;;4.30;;
79464;SDS011;68932;47.410;8.232;2024-03-02T12:49:38;7.00;;;5.00;;
79464;SDS011;68932;47.410;8.232;2024-03-02T12:52:07;6.20;;;4.20;;
79464;SDS011;68932;47.410;8.232;2024-03-02T12:54:38;5.40;;;3.60;;
79464;SDS011;68932;47.410;8.232;2024-03-02T12:57:06;5.00;;;3.90;;
79464;SDS011;68932;47.410;8.232;2024-03-02T12:59:34;4.50;;;3.00;;
79464;SDS011;68932;47.410;8.232;2024-03-02T13:02:02;3.90;;;2.80;;
79464;SDS011;68932;47.410;8.232;2024-03-02T13:04:31;5.10;;;3.10;;
79464;SDS011;68932;47.410;8.232;2024-03-02T13:06:59;4.90;;;3.60;;
79464;SDS011;68932;47.410;8.232;2024-03-02T13:09:27;3.70;;;3.40;;
79464;SDS011;68932;47.410;8.232;2024-03-02T13:11:55;4.40;;;3.10;;
79464;SDS011;68932;47.410;8.232;2024-03-02T13:14:24;4.10;;;3.30;;
79464;SDS011;68932;47.410;8.232;2024-03-02T13:16:52;3.90;;;2.90;;
79464;SDS011;68932;47.410;8.232;2024-03-02T13:19:20;5.20;;;3.00;;
79464;SDS011;68932;47.410;8.232;2024-03-02T13:21:48;3.70;;;2.90;;
79464;SDS011;68932;47.410;8.232;2024-03-02T13:24:17;4.90;;;3.10;;
79464;SDS011;68932;47.410;8.232;2024-03-02T13:26:46;5.30;;;3.30;;
79464;SDS011;68932;47.410;8.232;2024-03-02T13:29:14;3.40;;;2.50;;
79464;SDS011;68932;47.410;8.232;2024-03-02T13:31:42;4.40;;;3.00;;
79464;SDS011;68932;47.410;8.232;2024-03-02T13:34:10;3.70;;;2.70;;
79464;SDS011;68932;47.410;8.232;2024-03-02T13:36:39;3.40;;;2.50;;
79464;SDS011;68932;47.410;8.232;2024-03-02T13:39:07;3.70;;;2.80;;
79464;SDS011;68932;47.410;8.232;2024-03-02T13:41:35;3.90;;;2.70;;
79464;SDS011;68932;47.410;8.232;2024-03-02T13:44:04;4.20;;;3.60;;
79464;SDS011;68932;47.410;8.232;2024-03-02T13:46:32;3.40;;;2.40;;
79464;SDS011;68932;47.410;8.232;2024-03-02T13:49:00;4.00;;;2.60;;
79464;SDS011;68932;47.410;8.232;2024-03-02T13:51:29;2.70;;;1.90;;
79464;SDS011;68932;47.410;8.232;2024-03-02T13:53:57;2.40;;;1.90;;
79464;SDS011;68932;47.410;8.232;2024-03-02T13:56:25;2.50;;;1.90;;
79464;SDS011;68932;47.410;8.232;2024-03-02T13:58:53;2.80;;;2.10;;
79464;SDS011;68932;47.410;8.232;2024-03-02T14:01:21;3.20;;;2.50;;
79464;SDS011;68932;47.410;8.232;2024-03-02T14:03:50;3.00;;;2.50;;
79464;SDS011;68932;47.410;8.232;2024-03-02T14:06:18;2.80;;;1.90;;
79464;SDS011;68932;47.410;8.232;2024-03-02T14:08:47;5.10;;;3.60;;
79464;SDS011;68932;47.410;8.232;2024-03-02T14:11:15;2.80;;;2.40;;
79464;SDS011;68932;47.410;8.232;2024-03-02T14:13:43;3.30;;;2.20;;
79464;SDS011;68932;47.410;8.232;2024-03-02T14:16:11;3.00;;;2.10;;
79464;SDS011;68932;47.410;8.232;2024-03-02T14:18:39;3.30;;;2.70;;
79464;SDS011;68932;47.410;8.232;2024-03-02T14:21:08;3.10;;;2.40;;
79464;SDS011;68932;47.410;8.232;2024-03-02T14:23:36;3.20;;;2.50;;
79464;SDS011;68932;47.410;8.232;2024-03-02T14:26:04;3.50;;;2.60;;
79464;SDS011;68932;47.410;8.232;2024-03-02T14:28:33;4.60;;;3.10;;
79464;SDS011;68932;47.410;8.232;2024-03-02T14:31:01;3.40;;;2.40;;
79464;SDS011;68932;47.410;8.232;2024-03-02T14:33:30;3.40;;;2.80;;
79464;SDS011;68932;47.410;8.232;2024-03-02T14:35:58;3.80;;;2.70;;
79464;SDS011;68932;47.410;8.232;2024-03-02T14:38:26;3.80;;;2.20;;
79464;SDS011;68932;47.410;8.232;2024-03-02T14:40:55;3.30;;;2.20;;
79464;SDS011;68932;47.410;8.232;2024-03-02T14:43:23;4.00;;;3.40;;
79464;SDS011;68932;47.410;8.232;2024-03-02T14:45:51;3.10;;;2.50;;
79464;SDS011;68932;47.410;8.232;2024-03-02T14:48:20;3.30;;;2.90;;
79464;SDS011;68932;47.410;8.232;2024-03-02T14:50:49;3.50;;;2.50;;
79464;SDS011;68932;47.410;8.232;2024-03-02T14:53:17;3.70;;;2.70;;